sensor_id;sensor_type;location;lat;lon;timestamp;P1;durP1;ratioP1;P2;durP2;ratioP2
15921;SDS011;8060;50.948;3.146;2022-08-11T00:01:22;8.23;;;5.73;;
15921;SDS011;8060;50.948;3.146;2022-08-11T00:03:53;13.43;;;5.80;;
15921;SDS011;8060;50.948;3.146;2022-08-11T00:06:23;15.07;;;6.30;;
15921;SDS011;8060;50.948;3.146;2022-08-11T05:39:15;24.37;;;8.97;;
15921;SDS011;8060;50.948;3.146;2022-08-11T05:42:03;17.87;;;9.53;;
15921;SDS011;8060;50.948;3.146;2022-08-11T05:44:57;16.50;;;8.97;;
15921;SDS011;8060;50.948;3.146;2022-08-11T05:47:47;14.30;;;8.57;;
15921;SDS011;8060;50.948;3.146;2022-08-11T05:50:33;14.83;;;9.07;;
15921;SDS011;8060;50.948;3.146;2022-08-11T05:53:20;19.23;;;8.40;;
15921;SDS011;8060;50.948;3.146;2022-08-11T05:56:13;12.63;;;8.80;;
15921;SDS011;8060;50.948;3.146;2022-08-11T05:58:46;15.60;;;8.70;;
15921;SDS011;8060;50.948;3.146;2022-08-11T06:01:20;16.53;;;7.50;;
15921;SDS011;8060;50.948;3.146;2022-08-11T06:03:51;13.13;;;8.27;;
15921;SDS011;8060;50.948;3.146;2022-08-11T06:06:39;13.23;;;8.27;;
15921;SDS011;8060;50.948;3.146;2022-08-11T06:09:19;15.93;;;7.80;;
15921;SDS011;8060;50.948;3.146;2022-08-11T06:11:51;12.30;;;8.20;;
15921;SDS011;8060;50.948;3.146;2022-08-11T06:14:21;13.80;;;7.83;;
15921;SDS011;8060;50.948;3.146;2022-08-11T06:16:52;14.00;;;8.10;;
15921;SDS011;8060;50.948;3.146;2022-08-11T06:19:29;12.80;;;8.00;;
15921;SDS011;8060;50.948;3.146;2022-08-11T06:22:00;13.30;;;7.60;;
15921;SDS011;8060;50.948;3.146;2022-08-11T06:24:29;19.90;;;7.80;;
15921;SDS011;8060;50.948;3.146;2022-08-11T06:27:00;11.73;;;8.23;;
15921;SDS011;8060;50.948;3.146;2022-08-11T06:29:45;11.67;;;8.30;;
15921;SDS011;8060;50.948;3.146;2022-08-11T06:32:23;16.17;;;9.10;;
15921;SDS011;8060;50.948;3.146;2022-08-11T06:34:55;13.07;;;7.13;;
15921;SDS011;8060;50.948;3.146;2022-08-11T06:37:34;13.77;;;7.97;;
15921;SDS011;8060;50.948;3.146;2022-08-11T06:40:12;16.67;;;7.47;;
15921;SDS011;8060;50.948;3.146;2022-08-11T06:42:52;27.07;;;7.67;;
15921;SDS011;8060;50.948;3.146;2022-08-11T06:45:26;17.93;;;7.63;;
15921;SDS011;8060;50.948;3.146;2022-08-11T06:47:58;14.90;;;7.13;;
15921;SDS011;8060;50.948;3.146;2022-08-11T06:50:28;16.20;;;6.80;;
15921;SDS011;8060;50.948;3.146;2022-08-11T06:53:16;16.73;;;6.90;;
15921;SDS011;8060;50.948;3.146;2022-08-11T06:55:47;18.47;;;6.97;;
15921;SDS011;8060;50.948;3.146;2022-08-11T06:58:35;9.33;;;6.50;;
15921;SDS011;8060;50.948;3.146;2022-08-11T07:01:28;15.77;;;7.03;;
15921;SDS011;8060;50.948;3.146;2022-08-11T07:04:17;22.43;;;6.70;;
15921;SDS011;8060;50.948;3.146;2022-08-11T07:06:56;23.13;;;7.00;;
15921;SDS011;8060;50.948;3.146;2022-08-11T07:10:05;16.37;;;6.77;;
15921;SDS011;8060;50.948;3.146;2022-08-11T07:13:03;15.40;;;7.17;;
15921;SDS011;8060;50.948;3.146;2022-08-11T07:16:10;14.20;;;7.00;;
15921;SDS011;8060;50.948;3.146;2022-08-11T07:18:44;15.67;;;7.73;;
15921;SDS011;8060;50.948;3.146;2022-08-11T07:21:33;11.70;;;6.67;;
15921;SDS011;8060;50.948;3.146;2022-08-11T07:24:29;13.23;;;7.18;;
15921;SDS011;8060;50.948;3.146;2022-08-11T07:27:29;10.35;;;6.45;;
15921;SDS011;8060;50.948;3.146;2022-08-11T07:30:20;16.42;;;7.20;;
15921;SDS011;8060;50.948;3.146;2022-08-11T07:32:50;12.13;;;6.28;;
15921;SDS011;8060;50.948;3.146;2022-08-11T07:35:21;12.65;;;6.40;;
15921;SDS011;8060;50.948;3.146;2022-08-11T07:37:55;14.15;;;6.32;;
15921;SDS011;8060;50.948;3.146;2022-08-11T07:40:32;11.65;;;5.47;;
15921;SDS011;8060;50.948;3.146;2022-08-11T07:43:01;14.48;;;6.85;;
15921;SDS011;8060;50.948;3.146;2022-08-11T07:45:32;13.45;;;6.40;;
15921;SDS011;8060;50.948;3.146;2022-08-11T07:48:19;16.52;;;6.90;;
15921;SDS011;8060;50.948;3.146;2022-08-11T07:51:05;17.67;;;6.50;;
15921;SDS011;8060;50.948;3.146;2022-08-11T07:53:51;12.25;;;6.05;;
15921;SDS011;8060;50.948;3.146;2022-08-11T07:56:28;15.77;;;5.82;;
15921;SDS011;8060;50.948;3.146;2022-08-11T07:59:19;14.18;;;5.88;;
15921;SDS011;8060;50.948;3.146;2022-08-11T08:02:26;11.93;;;5.93;;
15921;SDS011;8060;50.948;3.146;2022-08-11T08:05:13;15.55;;;5.80;;
15921;SDS011;8060;50.948;3.146;2022-08-11T08:08:01;12.63;;;5.45;;
15921;SDS011;8060;50.948;3.146;2022-08-11T08:10:48;14.45;;;6.13;;
15921;SDS011;8060;50.948;3.146;2022-08-11T08:13:34;10.93;;;6.25;;
15921;SDS011;8060;50.948;3.146;2022-08-11T08:16:21;12.45;;;5.13;;
15921;SDS011;8060;50.948;3.146;2022-08-11T08:19:07;12.48;;;4.78;;
15921;SDS011;8060;50.948;3.146;2022-08-11T08:21:40;12.65;;;4.70;;
15921;SDS011;8060;50.948;3.146;2022-08-11T08:24:10;11.02;;;5.28;;
15921;SDS011;8060;50.948;3.146;2022-08-11T08:26:40;14.60;;;5.28;;
15921;SDS011;8060;50.948;3.146;2022-08-11T08:29:30;20.83;;;4.80;;
15921;SDS011;8060;50.948;3.146;2022-08-11T08:32:18;11.68;;;4.75;;
15921;SDS011;8060;50.948;3.146;2022-08-11T08:34:47;18.50;;;4.15;;
15921;SDS011;8060;50.948;3.146;2022-08-11T08:37:18;15.95;;;3.95;;
15921;SDS011;8060;50.948;3.146;2022-08-11T08:40:09;12.85;;;4.07;;
15921;SDS011;8060;50.948;3.146;2022-08-11T08:42:40;13.45;;;3.80;;
15921;SDS011;8060;50.948;3.146;2022-08-11T08:45:13;5.38;;;3.50;;
15921;SDS011;8060;50.948;3.146;2022-08-11T08:47:45;10.95;;;3.67;;
15921;SDS011;8060;50.948;3.146;2022-08-11T08:50:19;7.05;;;3.05;;
15921;SDS011;8060;50.948;3.146;2022-08-11T08:52:55;8.65;;;3.60;;
15921;SDS011;8060;50.948;3.146;2022-08-11T08:55:29;14.00;;;3.45;;
15921;SDS011;8060;50.948;3.146;2022-08-11T08:57:58;5.15;;;3.40;;
15921;SDS011;8060;50.948;3.146;2022-08-11T09:00:36;16.35;;;3.72;;
15921;SDS011;8060;50.948;3.146;2022-08-11T09:03:06;7.18;;;3.08;;
15921;SDS011;8060;50.948;3.146;2022-08-11T09:05:54;6.78;;;3.25;;
15921;SDS011;8060;50.948;3.146;2022-08-11T09:08:25;10.48;;;2.80;;
15921;SDS011;8060;50.948;3.146;2022-08-11T09:10:54;6.85;;;2.95;;
15921;SDS011;8060;50.948;3.146;2022-08-11T09:13:41;8.27;;;3.40;;
15921;SDS011;8060;50.948;3.146;2022-08-11T09:16:30;7.90;;;2.95;;
15921;SDS011;8060;50.948;3.146;2022-08-11T09:18:59;8.57;;;3.03;;
15921;SDS011;8060;50.948;3.146;2022-08-11T09:21:27;7.05;;;2.85;;
15921;SDS011;8060;50.948;3.146;2022-08-11T09:24:15;9.43;;;3.10;;
15921;SDS011;8060;50.948;3.146;2022-08-11T09:27:03;8.02;;;2.88;;
15921;SDS011;8060;50.948;3.146;2022-08-11T09:29:32;4.47;;;2.83;;
15921;SDS011;8060;50.948;3.146;2022-08-11T09:32:04;13.27;;;2.90;;
15921;SDS011;8060;50.948;3.146;2022-08-11T09:34:34;11.00;;;2.78;;
15921;SDS011;8060;50.948;3.146;2022-08-11T09:37:05;6.43;;;2.70;;
15921;SDS011;8060;50.948;3.146;2022-08-11T09:40:13;8.93;;;2.60;;
15921;SDS011;8060;50.948;3.146;2022-08-11T09:43:05;17.30;;;3.20;;
15921;SDS011;8060;50.948;3.146;2022-08-11T09:45:54;14.65;;;2.90;;
15921;SDS011;8060;50.948;3.146;2022-08-11T09:48:26;8.52;;;2.90;;
15921;SDS011;8060;50.948;3.146;2022-08-11T09:50:57;8.10;;;2.95;;
15921;SDS011;8060;50.948;3.146;2022-08-11T09:53:29;7.95;;;3.00;;
15921;SDS011;8060;50.948;3.146;2022-08-11T09:56:09;8.27;;;3.20;;
15921;SDS011;8060;50.948;3.146;2022-08-11T09:58:57;8.43;;;3.10;;
15921;SDS011;8060;50.948;3.146;2022-08-11T10:01:29;9.07;;;3.08;;
15921;SDS011;8060;50.948;3.146;2022-08-11T10:03:59;9.52;;;3.10;;
15921;SDS011;8060;50.948;3.146;2022-08-11T10:06:30;8.23;;;3.50;;
15921;SDS011;8060;50.948;3.146;2022-08-11T10:09:20;7.03;;;3.13;;
15921;SDS011;8060;50.948;3.146;2022-08-11T10:11:54;11.00;;;4.30;;
15921;SDS011;8060;50.948;3.146;2022-08-11T10:14:25;7.93;;;3.50;;
15921;SDS011;8060;50.948;3.146;2022-08-11T10:17:13;6.85;;;2.90;;
15921;SDS011;8060;50.948;3.146;2022-08-11T10:19:44;13.95;;;3.10;;
15921;SDS011;8060;50.948;3.146;2022-08-11T10:22:31;8.45;;;3.90;;
15921;SDS011;8060;50.948;3.146;2022-08-11T10:25:17;4.80;;;2.97;;
15921;SDS011;8060;50.948;3.146;2022-08-11T10:28:07;6.53;;;4.15;;
15921;SDS011;8060;50.948;3.146;2022-08-11T10:30:57;5.90;;;3.03;;
15921;SDS011;8060;50.948;3.146;2022-08-11T10:33:43;7.10;;;2.60;;
15921;SDS011;8060;50.948;3.146;2022-08-11T10:36:29;12.13;;;2.40;;
15921;SDS011;8060;50.948;3.146;2022-08-11T10:38:59;5.13;;;2.53;;
15921;SDS011;8060;50.948;3.146;2022-08-11T10:41:29;6.00;;;2.33;;
15921;SDS011;8060;50.948;3.146;2022-08-11T10:44:37;6.40;;;2.35;;
15921;SDS011;8060;50.948;3.146;2022-08-11T10:47:06;6.05;;;2.47;;
15921;SDS011;8060;50.948;3.146;2022-08-11T10:49:54;16.85;;;2.90;;
15921;SDS011;8060;50.948;3.146;2022-08-11T10:52:37;9.20;;;2.50;;
15921;SDS011;8060;50.948;3.146;2022-08-11T10:55:24;5.38;;;2.33;;
15921;SDS011;8060;50.948;3.146;2022-08-11T10:58:11;7.60;;;2.60;;
15921;SDS011;8060;50.948;3.146;2022-08-11T11:01:00;6.63;;;2.10;;
15921;SDS011;8060;50.948;3.146;2022-08-11T11:03:29;5.13;;;2.25;;
15921;SDS011;8060;50.948;3.146;2022-08-11T11:06:02;7.35;;;2.13;;
15921;SDS011;8060;50.948;3.146;2022-08-11T11:08:59;3.85;;;2.35;;
15921;SDS011;8060;50.948;3.146;2022-08-11T11:11:33;9.13;;;2.50;;
15921;SDS011;8060;50.948;3.146;2022-08-11T11:14:21;5.78;;;2.35;;
15921;SDS011;8060;50.948;3.146;2022-08-11T11:17:19;11.82;;;2.55;;
15921;SDS011;8060;50.948;3.146;2022-08-11T11:20:12;4.28;;;2.10;;
15921;SDS011;8060;50.948;3.146;2022-08-11T11:23:04;4.85;;;2.40;;
15921;SDS011;8060;50.948;3.146;2022-08-11T11:25:37;4.22;;;2.45;;
15921;SDS011;8060;50.948;3.146;2022-08-11T11:28:51;6.10;;;2.25;;
15921;SDS011;8060;50.948;3.146;2022-08-11T11:31:49;2.30;;;2.10;;
15921;SDS011;8060;50.948;3.146;2022-08-11T11:34:35;10.10;;;2.20;;
15921;SDS011;8060;50.948;3.146;2022-08-11T11:37:19;5.70;;;2.13;;
15921;SDS011;8060;50.948;3.146;2022-08-11T11:39:48;7.22;;;2.25;;
15921;SDS011;8060;50.948;3.146;2022-08-11T11:42:17;4.03;;;2.20;;
15921;SDS011;8060;50.948;3.146;2022-08-11T11:44:46;3.80;;;2.28;;
15921;SDS011;8060;50.948;3.146;2022-08-11T11:47:19;13.57;;;2.30;;
15921;SDS011;8060;50.948;3.146;2022-08-11T11:49:50;6.50;;;1.83;;
15921;SDS011;8060;50.948;3.146;2022-08-11T11:52:20;4.95;;;2.10;;
15921;SDS011;8060;50.948;3.146;2022-08-11T11:54:49;3.95;;;2.17;;
15921;SDS011;8060;50.948;3.146;2022-08-11T11:57:21;5.88;;;2.20;;
15921;SDS011;8060;50.948;3.146;2022-08-11T12:00:24;5.22;;;2.20;;
15921;SDS011;8060;50.948;3.146;2022-08-11T12:03:09;3.95;;;2.15;;
15921;SDS011;8060;50.948;3.146;2022-08-11T12:05:39;5.18;;;2.20;;
15921;SDS011;8060;50.948;3.146;2022-08-11T12:08:12;5.57;;;2.00;;
15921;SDS011;8060;50.948;3.146;2022-08-11T12:10:43;3.20;;;1.73;;
15921;SDS011;8060;50.948;3.146;2022-08-11T12:13:13;9.95;;;1.90;;
15921;SDS011;8060;50.948;3.146;2022-08-11T12:16:01;6.85;;;2.13;;
15921;SDS011;8060;50.948;3.146;2022-08-11T12:18:50;6.50;;;2.15;;
15921;SDS011;8060;50.948;3.146;2022-08-11T12:21:23;6.35;;;1.70;;
15921;SDS011;8060;50.948;3.146;2022-08-11T12:23:54;6.50;;;1.92;;
15921;SDS011;8060;50.948;3.146;2022-08-11T12:26:41;6.70;;;1.55;;
15921;SDS011;8060;50.948;3.146;2022-08-11T12:29:43;9.00;;;2.30;;
15921;SDS011;8060;50.948;3.146;2022-08-11T12:32:20;7.15;;;1.98;;
15921;SDS011;8060;50.948;3.146;2022-08-11T12:34:50;7.28;;;2.17;;
15921;SDS011;8060;50.948;3.146;2022-08-11T12:37:20;5.40;;;2.30;;
15921;SDS011;8060;50.948;3.146;2022-08-11T12:39:57;5.15;;;2.22;;
15921;SDS011;8060;50.948;3.146;2022-08-11T12:43:06;6.45;;;2.45;;
15921;SDS011;8060;50.948;3.146;2022-08-11T12:46:05;4.65;;;1.77;;
15921;SDS011;8060;50.948;3.146;2022-08-11T12:48:35;6.43;;;1.83;;
15921;SDS011;8060;50.948;3.146;2022-08-11T12:51:29;4.30;;;2.25;;
15921;SDS011;8060;50.948;3.146;2022-08-11T12:54:43;7.28;;;1.98;;
15921;SDS011;8060;50.948;3.146;2022-08-11T12:57:17;5.35;;;2.30;;
15921;SDS011;8060;50.948;3.146;2022-08-11T13:00:08;4.93;;;2.00;;
15921;SDS011;8060;50.948;3.146;2022-08-11T13:02:54;5.50;;;2.17;;
15921;SDS011;8060;50.948;3.146;2022-08-11T13:05:41;6.97;;;2.00;;
15921;SDS011;8060;50.948;3.146;2022-08-11T13:08:10;6.22;;;2.15;;
15921;SDS011;8060;50.948;3.146;2022-08-11T13:10:42;4.03;;;1.70;;
15921;SDS011;8060;50.948;3.146;2022-08-11T13:13:29;9.02;;;1.67;;
15921;SDS011;8060;50.948;3.146;2022-08-11T13:16:17;5.47;;;2.17;;
15921;SDS011;8060;50.948;3.146;2022-08-11T13:18:48;6.55;;;2.17;;
15921;SDS011;8060;50.948;3.146;2022-08-11T13:21:19;4.97;;;1.85;;
15921;SDS011;8060;50.948;3.146;2022-08-11T13:23:49;8.35;;;2.10;;
15921;SDS011;8060;50.948;3.146;2022-08-11T13:26:30;7.22;;;2.08;;
15921;SDS011;8060;50.948;3.146;2022-08-11T13:29:15;4.93;;;2.00;;
15921;SDS011;8060;50.948;3.146;2022-08-11T13:31:45;4.07;;;1.70;;
15921;SDS011;8060;50.948;3.146;2022-08-11T13:34:14;14.25;;;2.17;;
15921;SDS011;8060;50.948;3.146;2022-08-11T13:36:43;5.22;;;2.33;;
15921;SDS011;8060;50.948;3.146;2022-08-11T13:39:11;8.05;;;2.08;;
15921;SDS011;8060;50.948;3.146;2022-08-11T13:41:41;5.05;;;1.90;;
15921;SDS011;8060;50.948;3.146;2022-08-11T13:44:14;6.97;;;1.92;;
15921;SDS011;8060;50.948;3.146;2022-08-11T13:46:51;3.70;;;1.80;;
15921;SDS011;8060;50.948;3.146;2022-08-11T13:49:22;6.18;;;2.20;;
15921;SDS011;8060;50.948;3.146;2022-08-11T13:51:51;10.07;;;2.10;;
15921;SDS011;8060;50.948;3.146;2022-08-11T13:54:22;7.50;;;2.38;;
15921;SDS011;8060;50.948;3.146;2022-08-11T13:56:54;8.07;;;2.08;;
15921;SDS011;8060;50.948;3.146;2022-08-11T13:59:24;4.75;;;2.00;;
15921;SDS011;8060;50.948;3.146;2022-08-11T14:01:57;8.13;;;2.53;;
15921;SDS011;8060;50.948;3.146;2022-08-11T14:04:50;4.97;;;2.40;;
15921;SDS011;8060;50.948;3.146;2022-08-11T14:07:22;5.68;;;2.08;;
15921;SDS011;8060;50.948;3.146;2022-08-11T14:09:57;15.00;;;2.33;;
15921;SDS011;8060;50.948;3.146;2022-08-11T14:12:29;8.45;;;2.15;;
15921;SDS011;8060;50.948;3.146;2022-08-11T14:15:18;11.10;;;2.28;;
15921;SDS011;8060;50.948;3.146;2022-08-11T14:17:51;6.93;;;2.15;;
15921;SDS011;8060;50.948;3.146;2022-08-11T14:20:26;5.05;;;2.15;;
15921;SDS011;8060;50.948;3.146;2022-08-11T14:23:17;3.65;;;2.05;;
15921;SDS011;8060;50.948;3.146;2022-08-11T14:25:49;7.75;;;2.50;;
15921;SDS011;8060;50.948;3.146;2022-08-11T14:28:35;8.43;;;2.40;;
15921;SDS011;8060;50.948;3.146;2022-08-11T14:31:10;7.10;;;2.15;;
15921;SDS011;8060;50.948;3.146;2022-08-11T14:33:40;10.68;;;2.60;;
15921;SDS011;8060;50.948;3.146;2022-08-11T14:36:28;5.75;;;2.40;;
15921;SDS011;8060;50.948;3.146;2022-08-11T14:39:01;8.38;;;2.35;;
15921;SDS011;8060;50.948;3.146;2022-08-11T14:41:33;5.35;;;2.63;;
15921;SDS011;8060;50.948;3.146;2022-08-11T14:44:39;5.60;;;2.55;;
15921;SDS011;8060;50.948;3.146;2022-08-11T14:47:26;8.40;;;2.50;;
15921;SDS011;8060;50.948;3.146;2022-08-11T14:49:57;10.32;;;2.53;;
15921;SDS011;8060;50.948;3.146;2022-08-11T14:52:37;3.72;;;2.20;;
15921;SDS011;8060;50.948;3.146;2022-08-11T14:55:09;8.27;;;2.40;;
15921;SDS011;8060;50.948;3.146;2022-08-11T14:57:56;9.00;;;2.58;;
15921;SDS011;8060;50.948;3.146;2022-08-11T15:00:27;8.63;;;2.90;;
15921;SDS011;8060;50.948;3.146;2022-08-11T15:02:56;10.70;;;2.60;;
15921;SDS011;8060;50.948;3.146;2022-08-11T15:05:40;4.68;;;2.45;;
15921;SDS011;8060;50.948;3.146;2022-08-11T15:08:22;3.88;;;2.65;;
15921;SDS011;8060;50.948;3.146;2022-08-11T15:11:06;5.82;;;2.33;;
15921;SDS011;8060;50.948;3.146;2022-08-11T15:13:57;12.23;;;2.70;;
15921;SDS011;8060;50.948;3.146;2022-08-11T15:16:27;7.80;;;2.75;;
15921;SDS011;8060;50.948;3.146;2022-08-11T15:19:14;10.65;;;2.58;;
15921;SDS011;8060;50.948;3.146;2022-08-11T15:21:44;6.47;;;2.58;;
15921;SDS011;8060;50.948;3.146;2022-08-11T15:24:30;6.63;;;2.10;;
15921;SDS011;8060;50.948;3.146;2022-08-11T15:27:02;4.82;;;2.55;;
15921;SDS011;8060;50.948;3.146;2022-08-11T15:29:49;13.07;;;2.30;;
15921;SDS011;8060;50.948;3.146;2022-08-11T15:32:58;6.03;;;2.40;;
15921;SDS011;8060;50.948;3.146;2022-08-11T15:35:46;6.25;;;2.45;;
15921;SDS011;8060;50.948;3.146;2022-08-11T15:38:31;12.48;;;2.83;;
15921;SDS011;8060;50.948;3.146;2022-08-11T15:41:05;7.10;;;3.20;;
15921;SDS011;8060;50.948;3.146;2022-08-11T15:43:55;6.10;;;2.55;;
15921;SDS011;8060;50.948;3.146;2022-08-11T15:46:42;8.38;;;2.50;;
15921;SDS011;8060;50.948;3.146;2022-08-11T15:49:17;8.77;;;2.95;;
15921;SDS011;8060;50.948;3.146;2022-08-11T15:52:09;3.17;;;2.45;;
15921;SDS011;8060;50.948;3.146;2022-08-11T15:54:43;6.18;;;2.70;;
15921;SDS011;8060;50.948;3.146;2022-08-11T15:57:13;10.30;;;2.85;;
15921;SDS011;8060;50.948;3.146;2022-08-11T16:00:05;7.68;;;2.60;;
15921;SDS011;8060;50.948;3.146;2022-08-11T16:02:52;4.38;;;2.50;;
15921;SDS011;8060;50.948;3.146;2022-08-11T16:05:42;10.25;;;2.50;;
15921;SDS011;8060;50.948;3.146;2022-08-11T16:08:18;9.55;;;2.67;;
15921;SDS011;8060;50.948;3.146;2022-08-11T16:10:58;3.55;;;2.70;;
15921;SDS011;8060;50.948;3.146;2022-08-11T16:13:29;5.43;;;2.70;;
15921;SDS011;8060;50.948;3.146;2022-08-11T16:16:16;6.72;;;2.70;;
15921;SDS011;8060;50.948;3.146;2022-08-11T16:18:47;8.90;;;2.63;;
15921;SDS011;8060;50.948;3.146;2022-08-11T16:21:21;5.35;;;2.60;;
15921;SDS011;8060;50.948;3.146;2022-08-11T16:24:02;6.82;;;2.53;;
15921;SDS011;8060;50.948;3.146;2022-08-11T16:26:33;6.38;;;2.55;;
15921;SDS011;8060;50.948;3.146;2022-08-11T16:29:24;8.63;;;2.80;;
15921;SDS011;8060;50.948;3.146;2022-08-11T16:31:55;7.57;;;2.60;;
15921;SDS011;8060;50.948;3.146;2022-08-11T16:34:54;7.13;;;2.90;;
15921;SDS011;8060;50.948;3.146;2022-08-11T16:37:50;9.32;;;2.70;;
15921;SDS011;8060;50.948;3.146;2022-08-11T16:40:37;7.80;;;2.30;;
15921;SDS011;8060;50.948;3.146;2022-08-11T16:43:06;6.65;;;2.35;;
15921;SDS011;8060;50.948;3.146;2022-08-11T16:45:55;5.00;;;2.40;;
15921;SDS011;8060;50.948;3.146;2022-08-11T16:48:42;4.50;;;2.28;;
15921;SDS011;8060;50.948;3.146;2022-08-11T16:51:14;12.48;;;2.50;;
15921;SDS011;8060;50.948;3.146;2022-08-11T16:53:47;8.38;;;2.75;;
15921;SDS011;8060;50.948;3.146;2022-08-11T16:56:31;10.00;;;2.60;;
15921;SDS011;8060;50.948;3.146;2022-08-11T16:59:04;8.35;;;2.67;;
15921;SDS011;8060;50.948;3.146;2022-08-11T17:01:43;6.10;;;2.55;;
15921;SDS011;8060;50.948;3.146;2022-08-11T17:04:27;7.60;;;2.55;;
15921;SDS011;8060;50.948;3.146;2022-08-11T17:07:15;7.57;;;2.78;;
15921;SDS011;8060;50.948;3.146;2022-08-11T17:10:12;5.75;;;2.60;;
15921;SDS011;8060;50.948;3.146;2022-08-11T17:13:20;8.15;;;3.03;;
15921;SDS011;8060;50.948;3.146;2022-08-11T17:15:53;7.18;;;2.70;;
15921;SDS011;8060;50.948;3.146;2022-08-11T17:18:41;5.80;;;2.63;;
15921;SDS011;8060;50.948;3.146;2022-08-11T17:21:16;8.48;;;2.92;;
15921;SDS011;8060;50.948;3.146;2022-08-11T17:23:48;11.48;;;3.20;;
15921;SDS011;8060;50.948;3.146;2022-08-11T17:26:20;5.20;;;2.72;;
15921;SDS011;8060;50.948;3.146;2022-08-11T17:28:53;7.00;;;2.72;;
15921;SDS011;8060;50.948;3.146;2022-08-11T17:31:24;4.38;;;2.50;;
15921;SDS011;8060;50.948;3.146;2022-08-11T17:34:11;12.05;;;2.75;;
15921;SDS011;8060;50.948;3.146;2022-08-11T17:37:12;7.68;;;2.80;;
15921;SDS011;8060;50.948;3.146;2022-08-11T17:39:41;6.45;;;2.78;;
15921;SDS011;8060;50.948;3.146;2022-08-11T17:42:12;8.80;;;3.30;;
15921;SDS011;8060;50.948;3.146;2022-08-11T17:45:01;13.60;;;3.10;;
15921;SDS011;8060;50.948;3.146;2022-08-11T17:47:47;9.57;;;2.90;;
15921;SDS011;8060;50.948;3.146;2022-08-11T17:50:34;10.02;;;3.63;;
15921;SDS011;8060;50.948;3.146;2022-08-11T17:53:03;8.98;;;2.50;;
15921;SDS011;8060;50.948;3.146;2022-08-11T17:56:01;6.60;;;2.60;;
15921;SDS011;8060;50.948;3.146;2022-08-11T17:58:49;4.38;;;2.70;;
15921;SDS011;8060;50.948;3.146;2022-08-11T18:01:37;7.82;;;2.83;;
15921;SDS011;8060;50.948;3.146;2022-08-11T18:04:09;8.45;;;2.53;;
15921;SDS011;8060;50.948;3.146;2022-08-11T18:06:39;5.80;;;2.30;;
15921;SDS011;8060;50.948;3.146;2022-08-11T18:09:09;4.75;;;2.40;;
15921;SDS011;8060;50.948;3.146;2022-08-11T18:11:58;8.25;;;2.63;;
15921;SDS011;8060;50.948;3.146;2022-08-11T18:14:47;5.35;;;2.63;;
15921;SDS011;8060;50.948;3.146;2022-08-11T18:17:35;8.38;;;2.50;;
15921;SDS011;8060;50.948;3.146;2022-08-11T18:20:21;8.35;;;2.75;;
15921;SDS011;8060;50.948;3.146;2022-08-11T18:23:09;7.30;;;2.60;;
15921;SDS011;8060;50.948;3.146;2022-08-11T18:26:12;5.15;;;2.35;;
15921;SDS011;8060;50.948;3.146;2022-08-11T18:29:03;7.78;;;2.47;;
15921;SDS011;8060;50.948;3.146;2022-08-11T18:31:52;10.93;;;2.42;;
15921;SDS011;8060;50.948;3.146;2022-08-11T18:34:48;5.43;;;2.38;;
15921;SDS011;8060;50.948;3.146;2022-08-11T18:37:36;9.02;;;2.30;;
15921;SDS011;8060;50.948;3.146;2022-08-11T18:40:28;3.22;;;2.30;;
15921;SDS011;8060;50.948;3.146;2022-08-11T18:43:14;6.30;;;2.40;;
15921;SDS011;8060;50.948;3.146;2022-08-11T18:46:04;9.43;;;2.90;;
15921;SDS011;8060;50.948;3.146;2022-08-11T18:48:54;4.80;;;2.30;;
15921;SDS011;8060;50.948;3.146;2022-08-11T18:51:45;16.63;;;2.85;;
15921;SDS011;8060;50.948;3.146;2022-08-11T18:54:35;7.03;;;2.55;;
15921;SDS011;8060;50.948;3.146;2022-08-11T18:57:23;4.82;;;2.35;;
15921;SDS011;8060;50.948;3.146;2022-08-11T19:00:20;8.18;;;2.75;;
15921;SDS011;8060;50.948;3.146;2022-08-11T19:03:06;5.00;;;2.47;;
15921;SDS011;8060;50.948;3.146;2022-08-11T19:05:55;6.75;;;2.20;;
15921;SDS011;8060;50.948;3.146;2022-08-11T19:09:04;5.80;;;2.10;;
15921;SDS011;8060;50.948;3.146;2022-08-11T19:11:52;4.97;;;2.33;;
15921;SDS011;8060;50.948;3.146;2022-08-11T19:14:39;9.05;;;2.55;;
15921;SDS011;8060;50.948;3.146;2022-08-11T19:17:26;9.88;;;2.75;;
15921;SDS011;8060;50.948;3.146;2022-08-11T19:20:15;4.90;;;2.40;;
15921;SDS011;8060;50.948;3.146;2022-08-11T19:23:05;10.95;;;2.70;;
15921;SDS011;8060;50.948;3.146;2022-08-11T19:25:52;8.23;;;2.70;;
15921;SDS011;8060;50.948;3.146;2022-08-11T19:28:39;6.90;;;2.47;;
15921;SDS011;8060;50.948;3.146;2022-08-11T19:31:26;9.95;;;2.72;;
15921;SDS011;8060;50.948;3.146;2022-08-11T19:34:13;8.40;;;2.75;;
15921;SDS011;8060;50.948;3.146;2022-08-11T19:37:02;12.48;;;2.90;;
15921;SDS011;8060;50.948;3.146;2022-08-11T19:39:52;6.65;;;3.20;;
15921;SDS011;8060;50.948;3.146;2022-08-11T19:42:40;10.65;;;2.70;;
15921;SDS011;8060;50.948;3.146;2022-08-11T19:45:28;9.55;;;2.63;;
15921;SDS011;8060;50.948;3.146;2022-08-11T19:48:18;8.50;;;3.25;;
15921;SDS011;8060;50.948;3.146;2022-08-11T19:51:05;11.70;;;3.17;;
15921;SDS011;8060;50.948;3.146;2022-08-11T19:53:52;8.40;;;2.90;;
15921;SDS011;8060;50.948;3.146;2022-08-11T19:56:39;9.23;;;3.17;;
15921;SDS011;8060;50.948;3.146;2022-08-11T19:59:25;11.82;;;3.05;;
15921;SDS011;8060;50.948;3.146;2022-08-11T20:02:11;8.10;;;2.90;;
15921;SDS011;8060;50.948;3.146;2022-08-11T20:04:57;12.52;;;3.40;;
15921;SDS011;8060;50.948;3.146;2022-08-11T20:07:43;11.13;;;2.88;;
15921;SDS011;8060;50.948;3.146;2022-08-11T20:10:30;5.20;;;3.40;;
15921;SDS011;8060;50.948;3.146;2022-08-11T20:13:19;10.23;;;2.85;;
15921;SDS011;8060;50.948;3.146;2022-08-11T20:16:08;10.77;;;4.22;;
15921;SDS011;8060;50.948;3.146;2022-08-11T20:18:56;10.52;;;4.00;;
15921;SDS011;8060;50.948;3.146;2022-08-11T20:21:43;9.15;;;3.63;;
15921;SDS011;8060;50.948;3.146;2022-08-11T20:24:35;15.35;;;3.47;;
15921;SDS011;8060;50.948;3.146;2022-08-11T20:27:22;9.98;;;3.28;;
15921;SDS011;8060;50.948;3.146;2022-08-11T20:30:10;11.82;;;3.50;;
15921;SDS011;8060;50.948;3.146;2022-08-11T20:32:56;8.93;;;3.38;;
15921;SDS011;8060;50.948;3.146;2022-08-11T20:35:45;9.52;;;3.38;;
15921;SDS011;8060;50.948;3.146;2022-08-11T20:38:33;7.50;;;3.42;;
15921;SDS011;8060;50.948;3.146;2022-08-11T20:41:21;8.00;;;3.40;;
15921;SDS011;8060;50.948;3.146;2022-08-11T20:44:24;6.80;;;3.42;;
15921;SDS011;8060;50.948;3.146;2022-08-11T20:47:12;11.05;;;3.47;;
15921;SDS011;8060;50.948;3.146;2022-08-11T20:50:19;10.85;;;3.92;;
15921;SDS011;8060;50.948;3.146;2022-08-11T20:53:06;6.93;;;3.67;;
15921;SDS011;8060;50.948;3.146;2022-08-11T20:55:54;13.55;;;3.67;;
15921;SDS011;8060;50.948;3.146;2022-08-11T20:58:44;10.55;;;2.90;;
15921;SDS011;8060;50.948;3.146;2022-08-11T21:01:47;10.00;;;3.55;;
15921;SDS011;8060;50.948;3.146;2022-08-11T21:04:36;10.98;;;3.25;;
15921;SDS011;8060;50.948;3.146;2022-08-11T21:07:24;11.38;;;3.70;;
15921;SDS011;8060;50.948;3.146;2022-08-11T21:10:22;9.15;;;3.65;;
15921;SDS011;8060;50.948;3.146;2022-08-11T21:13:12;6.43;;;3.60;;
15921;SDS011;8060;50.948;3.146;2022-08-11T21:16:03;7.90;;;3.70;;
15921;SDS011;8060;50.948;3.146;2022-08-11T21:18:52;11.95;;;3.90;;
15921;SDS011;8060;50.948;3.146;2022-08-11T21:22:05;10.90;;;3.60;;
15921;SDS011;8060;50.948;3.146;2022-08-11T21:24:53;7.65;;;3.60;;
15921;SDS011;8060;50.948;3.146;2022-08-11T21:27:41;16.65;;;3.95;;
15921;SDS011;8060;50.948;3.146;2022-08-11T21:30:29;5.68;;;3.88;;
15921;SDS011;8060;50.948;3.146;2022-08-11T21:33:21;5.38;;;3.83;;
15921;SDS011;8060;50.948;3.146;2022-08-11T21:36:06;7.28;;;3.83;;
15921;SDS011;8060;50.948;3.146;2022-08-11T21:38:55;14.25;;;3.65;;
15921;SDS011;8060;50.948;3.146;2022-08-11T21:41:42;9.10;;;3.92;;
15921;SDS011;8060;50.948;3.146;2022-08-11T21:44:29;10.02;;;4.07;;
15921;SDS011;8060;50.948;3.146;2022-08-11T21:47:15;6.22;;;3.88;;
15921;SDS011;8060;50.948;3.146;2022-08-11T21:50:09;12.70;;;3.78;;
15921;SDS011;8060;50.948;3.146;2022-08-11T21:52:55;7.50;;;4.10;;
15921;SDS011;8060;50.948;3.146;2022-08-11T21:55:44;9.80;;;3.70;;
15921;SDS011;8060;50.948;3.146;2022-08-11T21:58:30;10.52;;;4.15;;